createdAt,value
2019-03-04T00:00:57.370Z,78.86
2019-03-04T00:01:57.381Z,78.45
2019-03-04T00:02:57.357Z,78.76
2019-03-04T00:03:57.334Z,78.56
2019-03-04T00:04:57.329Z,78.35
2019-03-04T00:05:57.316Z,78.25
2019-03-04T00:06:57.331Z,78.76
2019-03-04T00:07:57.291Z,78.35
2019-03-04T00:08:57.288Z,78.35
2019-03-04T00:09:57.264Z,78.15
2019-03-04T00:10:57.268Z,78.15
2019-03-04T00:11:57.271Z,78.35
2019-03-04T00:12:57.247Z,78.25
2019-03-04T00:13:57.238Z,78.35
2019-03-04T00:14:57.216Z,78.15
2019-03-04T00:15:57.210Z,78.15
2019-03-04T00:16:57.216Z,78.05
2019-03-04T00:17:57.191Z,77.84
2019-03-04T00:18:57.175Z,78.15
2019-03-04T00:19:57.168Z,77.94
2019-03-04T00:20:57.146Z,77.94
2019-03-04T00:21:57.153Z,77.64
2019-03-04T00:22:57.150Z,77.73
2019-03-04T00:23:57.147Z,77.73
2019-03-04T00:24:57.111Z,77.64
2019-03-04T00:25:57.108Z,77.73
2019-03-04T00:26:57.083Z,77.94
2019-03-04T00:27:57.093Z,77.84
2019-03-04T00:28:57.058Z,77.94
2019-03-04T00:29:57.050Z,77.94
2019-03-04T00:30:57.045Z,77.47
2019-03-04T00:31:57.033Z,77.64
2019-03-04T00:32:57.024Z,77.64
2019-03-04T00:33:57.009Z,77.73
2019-03-04T00:34:57.002Z,77.53
2019-03-04T00:35:56.986Z,77.33
2019-03-04T00:36:56.969Z,77.73
2019-03-04T00:37:57.009Z,77.64
2019-03-04T00:38:56.945Z,77.84
2019-03-04T00:39:56.955Z,77.73
2019-03-04T00:40:56.936Z,77.53
2019-03-04T00:41:56.920Z,77.53
2019-03-04T00:42:56.912Z,77.53
2019-03-04T00:43:56.914Z,77.64
2019-03-04T00:44:56.885Z,77.33
2019-03-04T00:45:57.826Z,77.53
2019-03-04T00:46:56.865Z,77.43
2019-03-04T00:47:56.843Z,77.33
2019-03-04T00:48:56.847Z,77.23
2019-03-04T00:49:57.117Z,77.33
2019-03-04T00:50:56.823Z,77.12
2019-03-04T00:51:56.821Z,77.23
2019-03-04T00:52:56.793Z,77.12
2019-03-04T00:53:56.805Z,77.33
2019-03-04T00:54:56.803Z,77.23
2019-03-04T00:55:56.758Z,77.33
2019-03-04T00:56:56.763Z,76.72
2019-03-04T00:57:56.733Z,77.43
2019-03-04T00:58:56.774Z,77.02
2019-03-04T00:59:56.713Z,76.81
2019-03-04T01:00:56.703Z,76.85
2019-03-04T01:01:56.692Z,76.95
2019-03-04T01:02:56.694Z,77.23
2019-03-04T01:03:56.707Z,76.81
2019-03-04T01:04:56.669Z,77.02
2019-03-04T01:05:56.655Z,76.81
2019-03-04T01:06:56.653Z,76.81
2019-03-04T01:07:56.628Z,77.23
2019-03-04T01:08:56.634Z,76.95
2019-03-04T01:09:56.641Z,76.31
2019-03-04T01:10:56.602Z,76.72
2019-03-04T01:11:56.584Z,77.12
2019-03-04T01:12:56.590Z,76.51
2019-03-04T01:13:56.567Z,76.65
2019-03-04T01:14:56.573Z,76.72
2019-03-04T01:15:56.532Z,76.51
2019-03-04T01:16:56.541Z,76.20
2019-03-04T01:17:56.547Z,76.54
2019-03-04T01:18:56.516Z,76.51
2019-03-04T01:19:56.530Z,76.20
2019-03-04T01:20:56.476Z,75.79
2019-03-04T01:21:56.489Z,76.72
2019-03-04T01:22:56.455Z,76.20
2019-03-04T01:23:56.468Z,76.20
2019-03-04T01:24:56.447Z,76.10
2019-03-04T01:25:56.455Z,76.10
2019-03-04T01:26:56.420Z,76.10
2019-03-04T01:27:56.432Z,75.69
2019-03-04T01:28:56.397Z,75.89
2019-03-04T01:29:56.387Z,75.89
2019-03-04T01:30:56.402Z,75.79
2019-03-04T01:31:56.368Z,75.89
2019-03-04T01:32:56.362Z,75.69
2019-03-04T01:33:56.343Z,75.79
2019-03-04T01:34:56.332Z,75.99
2019-03-04T01:35:56.346Z,75.69
2019-03-04T01:36:56.308Z,75.38
2019-03-04T01:37:56.308Z,75.28
2019-03-04T01:38:56.329Z,75.28
2019-03-04T01:39:56.266Z,75.79
2019-03-04T01:40:56.304Z,75.59
2019-03-04T01:41:56.250Z,75.48
2019-03-04T01:42:56.239Z,75.38
2019-03-04T01:43:56.235Z,75.79
2019-03-04T01:44:56.215Z,75.59
2019-03-04T01:45:56.219Z,75.69
2019-03-04T01:46:56.215Z,75.38
2019-03-04T01:47:56.185Z,75.48
2019-03-04T01:48:56.174Z,75.89
2019-03-04T01:49:56.168Z,75.59
2019-03-04T01:50:56.181Z,75.38
2019-03-04T01:51:56.142Z,75.48
2019-03-04T01:52:56.135Z,75.52
2019-03-04T01:53:56.113Z,75.89
2019-03-04T01:54:56.113Z,75.59
2019-03-04T01:55:56.123Z,75.38
2019-03-04T01:56:56.124Z,75.52
2019-03-04T01:57:56.083Z,75.73
2019-03-04T01:58:56.094Z,75.73
2019-03-04T01:59:56.085Z,75.82
2019-03-04T02:00:56.094Z,75.42
2019-03-04T02:01:56.037Z,75.79
2019-03-04T02:02:56.069Z,75.82
2019-03-04T02:03:56.131Z,75.52
2019-03-04T02:04:56.053Z,75.42
2019-03-04T02:05:56.012Z,75.69
2019-03-04T02:06:56.037Z,75.31
2019-03-04T02:07:56.031Z,75.59
2019-03-04T02:08:55.950Z,75.59
2019-03-04T02:09:55.959Z,75.48
2019-03-04T02:10:55.934Z,75.38
2019-03-04T02:11:56.010Z,75.62
2019-03-04T02:12:55.933Z,75.62
2019-03-04T02:13:55.899Z,75.73
2019-03-04T02:14:55.887Z,75.52
2019-03-04T02:15:55.877Z,76.03
2019-03-04T02:16:55.906Z,75.82
2019-03-04T02:17:55.859Z,76.14
2019-03-04T02:18:55.836Z,75.93
2019-03-04T02:19:55.845Z,75.73
2019-03-04T02:20:55.821Z,76.14
2019-03-04T02:21:55.822Z,75.82
2019-03-04T02:22:55.806Z,76.24
2019-03-04T02:23:55.777Z,75.62
2019-03-04T02:24:55.787Z,75.82
2019-03-04T02:25:55.767Z,76.78
2019-03-04T02:26:55.769Z,76.75
2019-03-04T02:27:55.768Z,75.66
2019-03-04T02:28:55.749Z,76.44
2019-03-04T02:29:55.738Z,76.34
2019-03-04T02:30:55.709Z,75.82
2019-03-04T02:31:55.705Z,76.34
2019-03-04T02:32:55.708Z,76.24
2019-03-04T02:33:55.699Z,76.24
2019-03-04T02:34:55.660Z,75.82
2019-03-04T02:35:55.649Z,75.82
2019-03-04T02:36:55.648Z,76.34
2019-03-04T02:37:55.652Z,75.82
2019-03-04T02:38:55.625Z,76.34
2019-03-04T02:39:55.603Z,76.17
2019-03-04T02:40:55.614Z,76.44
2019-03-04T02:41:55.581Z,75.86
2019-03-04T02:42:55.583Z,76.03
2019-03-04T02:43:55.589Z,76.37
2019-03-04T02:44:55.566Z,76.07
2019-03-04T02:45:55.548Z,75.96
2019-03-04T02:46:55.529Z,76.65
2019-03-04T02:47:55.551Z,76.58
2019-03-04T02:48:55.508Z,76.44
2019-03-04T02:49:55.498Z,76.27
2019-03-04T02:50:55.490Z,76.34
2019-03-04T02:51:55.476Z,76.54
2019-03-04T02:52:55.456Z,76.44
2019-03-04T02:53:55.465Z,76.48
2019-03-04T02:54:55.451Z,76.37
2019-03-04T02:55:55.443Z,76.78
2019-03-04T02:56:55.420Z,76.68
2019-03-04T02:57:55.410Z,76.48
2019-03-04T02:58:55.416Z,76.27
2019-03-04T02:59:55.396Z,76.17
2019-03-04T03:00:55.374Z,76.58
2019-03-04T03:01:55.374Z,76.37
2019-03-04T03:02:55.359Z,76.58
2019-03-04T03:03:55.392Z,75.96
2019-03-04T03:04:55.339Z,76.78
2019-03-04T03:05:55.335Z,76.07
2019-03-04T03:06:55.321Z,76.07
2019-03-04T03:07:55.309Z,76.78
2019-03-04T03:08:55.314Z,76.68
2019-03-04T03:09:55.281Z,75.66
2019-03-04T03:10:55.270Z,76.48
2019-03-04T03:11:55.254Z,76.17
2019-03-04T03:12:55.261Z,76.37
2019-03-04T03:13:55.251Z,76.27
2019-03-04T03:14:55.248Z,76.37
2019-03-04T03:15:55.223Z,76.78
2019-03-04T03:16:55.202Z,76.27
2019-03-04T03:17:55.194Z,76.68
2019-03-04T03:18:55.192Z,76.58
2019-03-04T03:19:55.180Z,76.78
2019-03-04T03:20:55.172Z,76.68
2019-03-04T03:21:55.151Z,76.48
2019-03-04T03:22:55.188Z,76.78
2019-03-04T03:23:55.123Z,76.78
2019-03-04T03:24:55.123Z,76.41
2019-03-04T03:25:55.100Z,77.09
2019-03-04T03:26:55.090Z,76.78
2019-03-04T03:27:55.077Z,77.20
2019-03-04T03:28:55.062Z,77.03
2019-03-04T03:29:55.070Z,77.33
2019-03-04T03:30:55.045Z,77.03
2019-03-04T03:31:55.028Z,76.99
2019-03-04T03:32:55.031Z,77.23
2019-03-04T03:33:55.029Z,76.99
2019-03-04T03:34:54.999Z,76.37
2019-03-04T03:35:55.007Z,77.09
2019-03-04T03:36:54.976Z,77.20
2019-03-04T03:37:54.975Z,77.03
2019-03-04T03:38:54.959Z,77.13
2019-03-04T03:39:54.956Z,77.03
2019-03-04T03:40:54.941Z,76.99
2019-03-04T03:41:54.927Z,76.89
2019-03-04T03:42:54.913Z,76.48
2019-03-04T03:43:54.900Z,77.09
2019-03-04T03:44:54.886Z,76.58
2019-03-04T03:45:54.907Z,76.82
2019-03-04T03:46:54.878Z,76.89
2019-03-04T03:47:54.854Z,77.03
2019-03-04T03:48:54.852Z,77.03
2019-03-04T03:49:54.825Z,76.99
2019-03-04T03:50:54.836Z,76.99
2019-03-04T03:51:54.810Z,76.99
2019-03-04T03:52:54.799Z,77.09
2019-03-04T03:53:54.793Z,77.29
2019-03-04T03:54:54.772Z,77.09
2019-03-04T03:55:54.777Z,77.23
2019-03-04T03:56:54.750Z,77.33
2019-03-04T03:57:54.749Z,77.20
2019-03-04T03:58:54.751Z,76.68
2019-03-04T03:59:54.765Z,77.29
2019-03-04T04:00:54.738Z,77.09
2019-03-04T04:01:54.708Z,76.78
2019-03-04T04:02:54.679Z,76.99
2019-03-04T04:03:54.689Z,77.09
2019-03-04T04:04:54.670Z,77.20
2019-03-04T04:05:54.672Z,77.20
2019-03-04T04:06:54.691Z,77.09
2019-03-04T04:07:54.673Z,76.58
2019-03-04T04:08:54.633Z,76.58
2019-03-04T04:09:54.608Z,76.58
2019-03-04T04:10:54.608Z,76.68
2019-03-04T04:11:54.642Z,76.58
2019-03-04T04:12:54.575Z,76.78
2019-03-04T04:13:54.557Z,76.68
2019-03-04T04:14:54.556Z,77.20
2019-03-04T04:15:54.552Z,76.99
2019-03-04T04:16:54.551Z,77.20
2019-03-04T04:17:54.517Z,77.29
2019-03-04T04:18:54.531Z,76.99
2019-03-04T04:19:54.497Z,76.99
2019-03-04T04:20:54.492Z,77.20
2019-03-04T04:21:54.506Z,76.89
2019-03-04T04:22:54.478Z,77.29
2019-03-04T04:23:54.462Z,77.20
2019-03-04T04:24:54.442Z,77.13
2019-03-04T04:25:54.447Z,77.20
2019-03-04T04:26:54.430Z,76.99
2019-03-04T04:27:54.434Z,77.13
2019-03-04T04:28:55.392Z,77.20
2019-03-04T04:29:54.388Z,77.13
2019-03-04T04:30:54.395Z,77.13
2019-03-04T04:31:54.366Z,77.20
2019-03-04T04:32:54.378Z,77.33
2019-03-04T04:33:54.353Z,77.23
2019-03-04T04:34:54.353Z,77.33
2019-03-04T04:35:54.340Z,77.23
2019-03-04T04:36:54.318Z,77.50
2019-03-04T04:37:54.340Z,77.29
2019-03-04T04:38:54.284Z,77.54
2019-03-04T04:39:54.283Z,77.44
2019-03-04T04:40:54.280Z,77.33
2019-03-04T04:41:54.267Z,77.33
2019-03-04T04:42:54.268Z,77.44
2019-03-04T04:43:54.233Z,77.33
2019-03-04T04:44:54.237Z,77.20
2019-03-04T04:45:54.209Z,77.44
2019-03-04T04:46:54.204Z,77.54
2019-03-04T04:47:54.203Z,77.44
2019-03-04T04:48:54.170Z,77.64
2019-03-04T04:49:54.164Z,77.54
2019-03-04T04:50:54.154Z,77.71
2019-03-04T04:51:54.145Z,77.54
2019-03-04T04:52:54.158Z,77.74
2019-03-04T04:53:54.119Z,77.33
2019-03-04T04:54:54.116Z,77.33
2019-03-04T04:55:54.103Z,77.23
2019-03-04T04:56:54.078Z,77.23
2019-03-04T04:57:54.075Z,77.44
2019-03-04T04:58:54.111Z,77.33
2019-03-04T04:59:54.057Z,77.33
2019-03-04T05:00:54.037Z,77.44
2019-03-04T05:01:54.039Z,77.54
2019-03-04T05:02:54.015Z,77.54
2019-03-04T05:03:54.030Z,77.33
2019-03-04T05:04:54.000Z,77.23
2019-03-04T05:05:54.003Z,77.44
2019-03-04T05:06:53.969Z,77.33
2019-03-04T05:07:53.955Z,77.33
2019-03-04T05:08:53.979Z,77.54
2019-03-04T05:09:53.947Z,77.40
2019-03-04T05:10:53.953Z,77.33
2019-03-04T05:11:53.929Z,77.54
2019-03-04T05:12:53.907Z,77.44
2019-03-04T05:13:53.887Z,77.33
2019-03-04T05:14:53.904Z,77.33
2019-03-04T05:15:53.882Z,77.54
2019-03-04T05:16:53.866Z,77.23
2019-03-04T05:17:53.842Z,77.44
2019-03-04T05:18:53.839Z,77.44
2019-03-04T05:19:53.855Z,77.33
2019-03-04T05:20:53.836Z,77.54
2019-03-04T05:21:53.810Z,77.54
2019-03-04T05:22:53.810Z,77.33
2019-03-04T05:23:53.784Z,77.74
2019-03-04T05:24:53.787Z,77.54
2019-03-04T05:25:53.765Z,77.74
2019-03-04T05:26:53.754Z,77.95
2019-03-04T05:27:53.755Z,77.95
2019-03-04T05:28:53.728Z,77.91
2019-03-04T05:29:53.728Z,78.05
2019-03-04T05:30:53.710Z,77.74
2019-03-04T05:31:53.702Z,77.95
2019-03-04T05:32:53.699Z,77.84
2019-03-04T05:33:53.675Z,78.05
2019-03-04T05:34:53.708Z,78.42
2019-03-04T05:35:53.652Z,78.16
2019-03-04T05:36:53.662Z,78.36
2019-03-04T05:37:53.633Z,78.36
2019-03-04T05:38:53.633Z,78.36
2019-03-04T05:39:53.609Z,78.46
2019-03-04T05:40:53.679Z,78.36
2019-03-04T05:41:53.583Z,78.22
2019-03-04T05:42:53.610Z,78.36
2019-03-04T05:43:53.570Z,78.63
2019-03-04T05:44:53.564Z,78.87
2019-03-04T05:45:53.556Z,78.56
2019-03-04T05:46:53.540Z,78.77
2019-03-04T05:47:53.523Z,78.53
2019-03-04T05:48:53.516Z,78.74
2019-03-04T05:49:53.512Z,78.83
2019-03-04T05:50:53.528Z,78.74
2019-03-04T05:51:53.496Z,78.94
2019-03-04T05:52:53.464Z,78.83
2019-03-04T05:53:53.454Z,79.04
2019-03-04T05:54:53.443Z,79.04
2019-03-04T05:55:53.430Z,79.24
2019-03-04T05:56:53.506Z,79.14
2019-03-04T05:57:53.401Z,79.24
2019-03-04T05:58:53.403Z,79.24
2019-03-04T05:59:53.397Z,79.35
2019-03-04T06:00:53.415Z,79.24
2019-03-04T06:01:53.390Z,79.14
2019-03-04T06:02:53.353Z,79.45
2019-03-04T06:03:53.881Z,79.45
2019-03-04T06:04:53.344Z,79.24
2019-03-04T06:05:53.327Z,79.35
2019-03-04T06:06:53.349Z,79.75
2019-03-04T06:07:53.374Z,79.45
2019-03-04T06:08:53.308Z,79.35
2019-03-04T06:09:53.283Z,79.55
2019-03-04T06:10:53.269Z,79.45
2019-03-04T06:11:53.259Z,79.24
2019-03-04T06:12:53.255Z,79.35
2019-03-04T06:13:53.239Z,79.45
2019-03-04T06:14:53.279Z,79.24
2019-03-04T06:15:53.209Z,79.45
2019-03-04T06:16:53.220Z,79.45
2019-03-04T06:17:53.193Z,79.55
2019-03-04T06:18:53.177Z,79.55
2019-03-04T06:19:53.177Z,79.45
2019-03-04T06:20:53.158Z,79.24
2019-03-04T06:21:53.166Z,80.99
2019-03-04T06:22:53.139Z,81.87
2019-03-04T06:23:53.132Z,82.18
2019-03-04T06:24:53.119Z,82.04
2019-03-04T06:25:53.103Z,80.91
2019-03-04T06:26:53.100Z,78.31
2019-03-04T06:27:53.145Z,79.44
2019-03-04T06:28:53.069Z,79.10
2019-03-04T06:29:53.047Z,78.59
2019-03-04T06:30:53.065Z,76.71
2019-03-04T06:31:53.070Z,75.17
2019-03-04T06:32:53.027Z,74.69
2019-03-04T06:33:53.003Z,75.52
2019-03-04T06:34:53.021Z,75.10
2019-03-04T06:35:52.992Z,75.24
2019-03-04T06:36:53.158Z,75.45
2019-03-04T06:37:52.995Z,76.06
2019-03-04T06:38:52.954Z,76.31
2019-03-04T06:39:52.950Z,76.78
2019-03-04T06:40:52.950Z,76.31
2019-03-04T06:41:52.923Z,76.61
2019-03-04T06:42:52.944Z,76.92
2019-03-04T06:43:52.907Z,77.12
2019-03-04T06:44:52.895Z,77.23
2019-03-04T06:45:52.874Z,76.72
2019-03-04T06:46:52.885Z,76.81
2019-03-04T06:47:52.889Z,77.16
2019-03-04T06:48:52.855Z,77.16
2019-03-04T06:49:52.828Z,77.47
2019-03-04T06:50:52.839Z,77.47
2019-03-04T06:51:52.816Z,77.47
2019-03-04T06:52:52.809Z,77.43
2019-03-04T06:53:52.810Z,77.67
2019-03-04T06:54:52.776Z,77.87
2019-03-04T06:55:52.758Z,77.77
2019-03-04T06:56:54.453Z,77.67
2019-03-04T06:57:52.758Z,78.05
2019-03-04T06:58:52.746Z,77.94
2019-03-04T06:59:52.731Z,77.98
2019-03-04T07:00:52.719Z,78.19
2019-03-04T07:01:52.708Z,78.08
2019-03-04T07:02:52.684Z,77.77
2019-03-04T07:03:52.700Z,77.73
2019-03-04T07:04:52.682Z,77.77
2019-03-04T07:05:52.672Z,77.73
2019-03-04T07:06:52.639Z,78.08
2019-03-04T07:07:52.627Z,78.08
2019-03-04T07:08:52.628Z,78.08
2019-03-04T07:09:52.632Z,77.77
2019-03-04T07:10:52.602Z,78.25
2019-03-04T07:11:52.605Z,77.84
2019-03-04T07:12:52.576Z,77.84
2019-03-04T07:13:52.565Z,77.87
2019-03-04T07:14:52.594Z,77.77
2019-03-04T07:15:52.549Z,77.84
2019-03-04T07:16:52.533Z,77.77
2019-03-04T07:17:52.538Z,77.84
2019-03-04T07:18:52.544Z,77.73
2019-03-04T07:19:52.511Z,77.43
2019-03-04T07:20:52.479Z,77.64
2019-03-04T07:21:52.487Z,77.23
2019-03-04T07:22:52.463Z,77.12
2019-03-04T07:23:52.466Z,77.12
2019-03-04T07:24:52.467Z,76.81
2019-03-04T07:25:52.433Z,76.81
2019-03-04T07:26:52.432Z,76.92
2019-03-04T07:27:52.404Z,77.53
2019-03-04T07:28:52.405Z,76.81
2019-03-04T07:29:52.399Z,76.72
2019-03-04T07:30:54.329Z,76.31
2019-03-04T07:31:52.359Z,76.20
2019-03-04T07:32:52.356Z,76.51
2019-03-04T07:33:52.354Z,76.51
2019-03-04T07:34:52.355Z,75.99
2019-03-04T07:35:52.315Z,75.79
2019-03-04T07:36:52.319Z,75.69
2019-03-04T07:37:52.307Z,75.38
2019-03-04T07:38:52.284Z,75.14
2019-03-04T07:39:52.298Z,75.55
2019-03-04T07:40:52.275Z,74.94
2019-03-04T07:41:52.251Z,75.45
2019-03-04T07:42:52.262Z,75.45
2019-03-04T07:43:52.233Z,75.45
2019-03-04T07:44:52.271Z,75.35
2019-03-04T07:45:52.213Z,75.14
2019-03-04T07:46:52.202Z,75.35
2019-03-04T07:47:52.188Z,75.45
2019-03-04T07:48:52.180Z,74.63
2019-03-04T07:49:52.174Z,74.53
2019-03-04T07:50:52.165Z,74.22
2019-03-04T07:51:52.144Z,73.91
2019-03-04T07:52:52.136Z,74.22
2019-03-04T07:53:52.115Z,74.02
2019-03-04T07:54:52.114Z,74.02
2019-03-04T07:55:52.130Z,74.11
2019-03-04T07:56:52.078Z,74.32
2019-03-04T07:57:52.090Z,74.11
2019-03-04T07:58:52.060Z,74.22
2019-03-04T07:59:52.054Z,73.30
2019-03-04T08:00:52.079Z,73.68
2019-03-04T08:01:52.038Z,73.57
2019-03-04T08:02:52.033Z,73.57
2019-03-04T08:03:52.020Z,73.78
2019-03-04T08:04:52.004Z,73.68
2019-03-04T08:05:51.993Z,73.57
2019-03-04T08:06:52.006Z,73.68
2019-03-04T08:07:51.983Z,73.27
2019-03-04T08:08:51.956Z,73.36
2019-03-04T08:09:51.952Z,73.30
2019-03-04T08:10:51.949Z,73.30
2019-03-04T08:11:51.943Z,73.27
2019-03-04T08:12:51.914Z,73.16
2019-03-04T08:13:51.904Z,73.36
2019-03-04T08:14:51.888Z,73.27
2019-03-04T08:15:51.881Z,73.16
2019-03-04T08:16:51.886Z,73.27
2019-03-04T08:17:51.855Z,73.16
2019-03-04T08:18:51.852Z,73.47
2019-03-04T08:19:51.832Z,73.06
2019-03-04T08:20:51.822Z,73.16
2019-03-04T08:21:51.839Z,73.47
2019-03-04T08:22:51.797Z,72.96
2019-03-04T08:23:51.781Z,73.16
2019-03-04T08:24:51.774Z,72.96
2019-03-04T08:25:51.772Z,73.36
2019-03-04T08:26:51.824Z,72.96
2019-03-04T08:27:52.478Z,73.23
2019-03-04T08:28:51.725Z,73.23
2019-03-04T08:29:51.724Z,73.27
2019-03-04T08:30:51.716Z,72.92
2019-03-04T08:31:51.716Z,73.33
2019-03-04T08:32:51.708Z,73.16
2019-03-04T08:33:51.700Z,73.44
2019-03-04T08:34:51.711Z,73.23
2019-03-04T08:35:51.653Z,73.33
2019-03-04T08:36:51.648Z,73.33
2019-03-04T08:37:51.652Z,73.23
2019-03-04T08:38:52.492Z,72.11
2019-03-04T08:39:51.608Z,72.31
2019-03-04T08:40:51.626Z,72.41
2019-03-04T08:41:51.606Z,72.82
2019-03-04T08:42:51.589Z,72.72
2019-03-04T08:43:51.570Z,72.72
2019-03-04T08:44:51.556Z,72.62
2019-03-04T08:45:51.561Z,72.82
2019-03-04T08:46:51.528Z,72.38
2019-03-04T08:47:51.532Z,72.41
2019-03-04T08:48:51.517Z,72.48
2019-03-04T08:49:51.513Z,71.59
2019-03-04T08:50:51.501Z,71.46
2019-03-04T08:51:51.499Z,72.28
2019-03-04T08:52:51.483Z,71.87
2019-03-04T08:53:51.464Z,72.69
2019-03-04T08:54:51.445Z,72.28
2019-03-04T08:55:51.433Z,72.48
2019-03-04T08:56:51.424Z,72.07
2019-03-04T08:57:51.419Z,71.77
2019-03-04T08:58:51.410Z,71.66
2019-03-04T08:59:51.433Z,72.38
2019-03-04T09:00:51.384Z,71.66
2019-03-04T09:01:51.369Z,71.66
2019-03-04T09:02:51.396Z,71.66
2019-03-04T09:03:51.343Z,71.56
2019-03-04T09:04:51.339Z,71.56
2019-03-04T09:05:51.324Z,71.66
2019-03-04T09:06:51.300Z,71.77
2019-03-04T09:07:51.343Z,71.77
2019-03-04T09:08:51.293Z,71.77
2019-03-04T09:09:51.277Z,71.87
2019-03-04T09:10:51.267Z,71.66
2019-03-04T09:11:51.257Z,71.66
2019-03-04T09:12:51.263Z,71.83
2019-03-04T09:13:51.237Z,71.83
2019-03-04T09:14:51.215Z,71.33
2019-03-04T09:15:51.227Z,71.73
2019-03-04T09:16:51.196Z,71.36
2019-03-04T09:17:51.204Z,71.66
2019-03-04T09:18:51.178Z,71.46
2019-03-04T09:19:51.167Z,71.56
2019-03-04T09:20:51.157Z,71.56
2019-03-04T09:21:51.148Z,70.71
2019-03-04T09:22:51.165Z,70.92
2019-03-04T09:23:51.139Z,71.42
2019-03-04T09:24:51.102Z,70.95
2019-03-04T09:25:51.088Z,70.61
2019-03-04T09:26:51.090Z,70.00
2019-03-04T09:27:51.080Z,69.89
2019-03-04T09:28:51.109Z,70.10
2019-03-04T09:29:51.079Z,70.00
2019-03-04T09:30:51.042Z,69.56
2019-03-04T09:31:51.029Z,69.45
2019-03-04T09:32:51.016Z,69.45
2019-03-04T09:33:51.016Z,68.94
2019-03-04T09:34:51.000Z,68.94
2019-03-04T09:35:50.989Z,68.74
2019-03-04T09:36:50.991Z,68.63
2019-03-04T09:37:50.958Z,68.50
2019-03-04T09:38:50.966Z,68.50
2019-03-04T09:39:50.938Z,68.02
2019-03-04T09:40:50.939Z,68.19
2019-03-04T09:41:52.492Z,68.43
2019-03-04T09:42:50.925Z,67.79
2019-03-04T09:43:50.917Z,68.19
2019-03-04T09:44:50.892Z,67.61
2019-03-04T09:45:50.880Z,67.68
2019-03-04T09:46:50.855Z,67.58
2019-03-04T09:47:50.859Z,67.48
2019-03-04T09:48:50.914Z,68.09
2019-03-04T09:49:50.837Z,67.68
2019-03-04T09:50:50.821Z,67.79
2019-03-04T09:51:50.818Z,67.99
2019-03-04T09:52:50.800Z,67.99
2019-03-04T09:53:50.797Z,68.09
2019-03-04T09:54:50.784Z,67.58
2019-03-04T09:55:50.766Z,67.89
2019-03-04T09:56:50.762Z,67.27
2019-03-04T09:57:50.744Z,67.48
2019-03-04T09:58:50.776Z,67.38
2019-03-04T09:59:50.723Z,66.86
2019-03-04T10:00:50.738Z,66.56
2019-03-04T10:01:50.695Z,66.25
2019-03-04T10:02:50.699Z,65.74
2019-03-04T10:03:50.688Z,66.46
2019-03-04T10:04:50.683Z,66.05
2019-03-04T10:05:50.657Z,66.02
2019-03-04T10:06:50.653Z,66.33
2019-03-04T10:07:50.637Z,66.22
2019-03-04T10:08:50.615Z,66.22
2019-03-04T10:09:50.633Z,66.42
2019-03-04T10:10:50.598Z,66.83
2019-03-04T10:11:50.599Z,66.42
2019-03-04T10:12:50.565Z,66.42
2019-03-04T10:13:50.578Z,65.51
2019-03-04T10:14:50.592Z,65.81
2019-03-04T10:15:50.556Z,65.71
2019-03-04T10:16:50.540Z,65.51
2019-03-04T10:17:50.532Z,65.78
2019-03-04T10:18:50.517Z,65.89
2019-03-04T10:19:50.515Z,65.92
2019-03-04T10:20:50.522Z,65.58
2019-03-04T10:21:50.463Z,66.09
2019-03-04T10:22:50.473Z,66.12
2019-03-04T10:23:50.476Z,66.09
2019-03-04T10:24:50.521Z,66.09
2019-03-04T10:25:50.450Z,65.89
2019-03-04T10:26:50.433Z,65.37
2019-03-04T10:27:50.415Z,65.28
2019-03-04T10:28:50.404Z,65.58
2019-03-04T10:29:50.379Z,65.37
2019-03-04T10:30:50.456Z,65.17
2019-03-04T10:31:50.367Z,65.37
2019-03-04T10:32:50.368Z,65.17
2019-03-04T10:33:50.343Z,63.95
2019-03-04T10:34:50.354Z,64.73
2019-03-04T10:35:50.363Z,64.63
2019-03-04T10:36:50.318Z,63.82
2019-03-04T10:37:50.298Z,63.82
2019-03-04T10:38:50.349Z,62.80
2019-03-04T10:39:50.295Z,62.16
2019-03-04T10:40:50.322Z,62.26
2019-03-04T10:41:50.301Z,62.05
2019-03-04T10:42:50.250Z,62.36
2019-03-04T10:43:50.230Z,62.33
2019-03-04T10:44:50.218Z,61.52
2019-03-04T10:45:50.222Z,60.80
2019-03-04T10:46:50.237Z,60.50
2019-03-04T10:47:50.192Z,60.37
2019-03-04T10:48:50.189Z,60.06
2019-03-04T10:49:50.175Z,60.37
2019-03-04T10:50:50.154Z,59.86
2019-03-04T10:51:50.159Z,60.27
2019-03-04T10:52:50.167Z,59.89
2019-03-04T10:53:50.125Z,60.16
2019-03-04T10:54:50.130Z,59.96
2019-03-04T10:55:50.099Z,59.89
2019-03-04T10:56:50.089Z,59.66
2019-03-04T10:57:50.093Z,59.45
2019-03-04T10:58:50.087Z,59.48
2019-03-04T10:59:50.048Z,59.05
2019-03-04T11:00:50.037Z,57.42
2019-03-04T11:01:50.257Z,57.52
2019-03-04T11:02:50.049Z,57.01
2019-03-04T11:03:50.021Z,57.49
2019-03-04T11:04:49.997Z,56.68
2019-03-04T11:05:49.990Z,56.57
2019-03-04T11:06:49.974Z,55.96
2019-03-04T11:07:49.984Z,55.96
2019-03-04T11:08:49.956Z,55.35
2019-03-04T11:09:49.937Z,55.94
2019-03-04T11:10:49.933Z,55.12
2019-03-04T11:11:49.928Z,54.82
2019-03-04T11:12:49.913Z,54.31
2019-03-04T11:13:49.926Z,52.48
2019-03-04T11:14:49.926Z,51.84
2019-03-04T11:15:49.916Z,51.26
2019-03-04T11:16:49.864Z,51.95
2019-03-04T11:17:50.518Z,51.34
2019-03-04T11:18:49.888Z,51.03
2019-03-04T11:19:50.442Z,50.83
2019-03-04T11:20:49.871Z,50.01
2019-03-04T11:21:49.812Z,50.01
2019-03-04T11:22:49.887Z,49.91
2019-03-04T11:23:49.809Z,49.71
2019-03-04T11:24:49.812Z,49.81
2019-03-04T11:25:49.781Z,49.51
2019-03-04T11:26:49.760Z,51.87
2019-03-04T11:27:49.741Z,53.72
2019-03-04T11:28:49.799Z,55.41
2019-03-04T11:29:49.726Z,59.74
2019-03-04T11:30:49.722Z,62.35
2019-03-04T11:31:49.698Z,64.62
2019-03-04T11:32:49.697Z,66.93
2019-03-04T11:33:49.739Z,67.78
2019-03-04T11:34:49.672Z,69.24
2019-03-04T11:35:49.657Z,70.09
2019-03-04T11:36:49.656Z,71.66
2019-03-04T11:37:49.626Z,71.77
2019-03-04T11:38:49.621Z,72.92
2019-03-04T11:39:49.636Z,73.78
2019-03-04T11:40:49.768Z,74.39
2019-03-04T11:41:49.579Z,74.29
2019-03-04T11:42:50.581Z,74.80
2019-03-04T11:43:49.564Z,74.49
2019-03-04T11:44:49.603Z,74.60
2019-03-04T11:45:49.557Z,75.52
2019-03-04T11:46:49.531Z,75.52
2019-03-04T11:47:49.526Z,75.52
2019-03-04T11:48:49.519Z,74.80
2019-03-04T11:49:49.513Z,74.90
2019-03-04T11:50:49.505Z,74.19
2019-03-04T11:51:49.472Z,73.57
2019-03-04T11:52:49.466Z,74.49
2019-03-04T11:53:49.489Z,73.47
2019-03-04T11:54:49.445Z,73.47
2019-03-04T11:55:49.445Z,73.81
2019-03-04T11:56:49.439Z,73.61
2019-03-04T11:57:49.412Z,73.40
2019-03-04T11:58:49.389Z,74.02
2019-03-04T11:59:49.381Z,73.81
2019-03-04T12:00:49.380Z,72.68
2019-03-04T12:01:49.387Z,72.38
2019-03-04T12:02:49.351Z,73.06
2019-03-04T12:03:49.355Z,72.96
2019-03-04T12:04:49.332Z,73.61
2019-03-04T12:05:49.338Z,73.10
2019-03-04T12:06:49.312Z,73.30
2019-03-04T12:07:49.306Z,71.76
2019-03-04T12:08:49.284Z,71.66
2019-03-04T12:09:49.293Z,71.56
2019-03-04T12:10:49.292Z,71.56
2019-03-04T12:11:49.255Z,71.56
2019-03-04T12:12:49.243Z,70.84
2019-03-04T12:13:49.241Z,70.43
2019-03-04T12:14:49.224Z,70.40
2019-03-04T12:15:49.240Z,70.19
2019-03-04T12:16:49.202Z,70.70
2019-03-04T12:17:49.208Z,69.78
2019-03-04T12:18:49.168Z,69.89
2019-03-04T12:19:49.180Z,69.89
2019-03-04T12:20:49.185Z,69.06
2019-03-04T12:21:49.141Z,68.96
2019-03-04T12:22:49.144Z,69.06
2019-03-04T12:23:49.131Z,68.11
2019-03-04T12:24:49.111Z,67.80
2019-03-04T12:25:49.128Z,68.21
2019-03-04T12:26:49.089Z,68.21
2019-03-04T12:27:49.091Z,66.16
2019-03-04T12:28:49.066Z,66.06
2019-03-04T12:29:49.053Z,65.75
2019-03-04T12:30:49.044Z,65.55
2019-03-04T12:31:49.067Z,65.31
2019-03-04T12:32:49.016Z,65.42
2019-03-04T12:33:49.010Z,64.70
2019-03-04T12:34:49.022Z,65.11
2019-03-04T12:35:49.014Z,64.90
2019-03-04T12:36:49.072Z,64.70
2019-03-04T12:37:48.958Z,64.39
2019-03-04T12:38:48.949Z,62.83
2019-03-04T12:39:48.942Z,64.39
2019-03-04T12:40:48.963Z,63.78
2019-03-04T12:41:49.737Z,64.16
2019-03-04T12:42:48.906Z,64.36
2019-03-04T12:43:48.889Z,64.06
2019-03-04T12:44:48.902Z,64.47
2019-03-04T12:45:48.870Z,64.47
2019-03-04T12:46:48.885Z,64.64
2019-03-04T12:47:48.861Z,64.47
2019-03-04T12:48:48.858Z,64.95
2019-03-04T12:49:48.830Z,65.08
2019-03-04T12:50:48.822Z,65.36
2019-03-04T12:51:48.853Z,65.15
2019-03-04T12:52:48.795Z,65.36